sensor_id;sensor_type;location;lat;lon;timestamp;pressure;altitude;pressure_sealevel;temperature;humidity
84957;BME280;75252;45.438;-73.814;2024-01-25T00:01:19;102415.06;;;-6.76;83.08
84957;BME280;75252;45.438;-73.814;2024-01-25T00:03:45;102396.69;;;-6.82;83.91
84957;BME280;75252;45.438;-73.814;2024-01-25T00:06:11;102385.50;;;-6.82;83.47
84957;BME280;75252;45.438;-73.814;2024-01-25T00:08:37;102381.31;;;-6.80;83.05
84957;BME280;75252;45.438;-73.814;2024-01-25T00:11:03;102367.19;;;-6.87;82.89
84957;BME280;75252;45.438;-73.814;2024-01-25T00:13:29;102357.03;;;-6.84;83.18
84957;BME280;75252;45.438;-73.814;2024-01-25T00:15:55;102348.75;;;-6.78;83.95
84957;BME280;75252;45.438;-73.814;2024-01-25T00:18:21;102350.38;;;-6.80;83.42
84957;BME280;75252;45.438;-73.814;2024-01-25T00:20:47;102348.97;;;-6.74;83.61
84957;BME280;75252;45.438;-73.814;2024-01-25T00:23:13;102340.91;;;-6.80;83.59
84957;BME280;75252;45.438;-73.814;2024-01-25T00:25:39;102333.03;;;-6.83;83.21
84957;BME280;75252;45.438;-73.814;2024-01-25T00:28:05;102318.53;;;-6.81;84.56
84957;BME280;75252;45.438;-73.814;2024-01-25T00:30:31;102305.13;;;-6.74;83.46
84957;BME280;75252;45.438;-73.814;2024-01-25T00:32:57;102301.59;;;-6.76;84.18
84957;BME280;75252;45.438;-73.814;2024-01-25T00:35:24;102295.34;;;-6.81;83.27
84957;BME280;75252;45.438;-73.814;2024-01-25T00:37:50;102306.94;;;-6.89;84.63
84957;BME280;75252;45.438;-73.814;2024-01-25T00:40:17;102311.44;;;-6.85;84.79
84957;BME280;75252;45.438;-73.814;2024-01-25T00:42:45;102295.16;;;-6.84;84.46
84957;BME280;75252;45.438;-73.814;2024-01-25T00:45:22;102289.28;;;-6.81;84.81
84957;BME280;75252;45.438;-73.814;2024-01-25T00:47:49;102270.34;;;-6.82;85.02
84957;BME280;75252;45.438;-73.814;2024-01-25T00:50:16;102277.59;;;-6.75;84.21
84957;BME280;75252;45.438;-73.814;2024-01-25T00:52:45;102275.97;;;-6.73;84.26
84957;BME280;75252;45.438;-73.814;2024-01-25T00:55:12;102267.28;;;-6.75;84.96
84957;BME280;75252;45.438;-73.814;2024-01-25T00:57:38;102253.72;;;-6.71;85.19
84957;BME280;75252;45.438;-73.814;2024-01-25T01:00:05;102276.81;;;-6.56;85.21
84957;BME280;75252;45.438;-73.814;2024-01-25T01:02:36;102264.81;;;-6.56;85.06
84957;BME280;75252;45.438;-73.814;2024-01-25T01:05:03;102259.66;;;-6.56;85.09
84957;BME280;75252;45.438;-73.814;2024-01-25T01:07:29;102258.50;;;-6.45;85.02
84957;BME280;75252;45.438;-73.814;2024-01-25T01:09:55;102257.69;;;-6.44;84.68
84957;BME280;75252;45.438;-73.814;2024-01-25T01:12:20;102255.03;;;-6.45;85.22
84957;BME280;75252;45.438;-73.814;2024-01-25T01:14:46;102257.69;;;-6.44;84.40
84957;BME280;75252;45.438;-73.814;2024-01-25T01:17:13;102232.09;;;-6.39;84.57
84957;BME280;75252;45.438;-73.814;2024-01-25T01:19:39;102234.88;;;-6.35;83.49
84957;BME280;75252;45.438;-73.814;2024-01-25T01:22:05;102195.38;;;-6.34;84.50
84957;BME280;75252;45.438;-73.814;2024-01-25T01:24:31;102215.38;;;-6.30;83.46
84957;BME280;75252;45.438;-73.814;2024-01-25T01:26:57;102236.09;;;-6.28;83.99
84957;BME280;75252;45.438;-73.814;2024-01-25T01:29:23;102212.78;;;-6.30;83.56
84957;BME280;75252;45.438;-73.814;2024-01-25T01:31:49;102198.41;;;-6.24;84.57
84957;BME280;75252;45.438;-73.814;2024-01-25T01:34:15;102200.97;;;-6.24;84.39
84957;BME280;75252;45.438;-73.814;2024-01-25T01:36:43;102182.84;;;-6.26;84.33
84957;BME280;75252;45.438;-73.814;2024-01-25T01:39:09;102183.75;;;-6.25;84.00
84957;BME280;75252;45.438;-73.814;2024-01-25T01:41:35;102190.75;;;-6.23;84.12
84957;BME280;75252;45.438;-73.814;2024-01-25T01:44:01;102194.25;;;-6.21;84.98
84957;BME280;75252;45.438;-73.814;2024-01-25T01:46:35;102188.81;;;-6.09;84.94
84957;BME280;75252;45.438;-73.814;2024-01-25T01:49:03;102182.03;;;-6.07;84.37
84957;BME280;75252;45.438;-73.814;2024-01-25T01:51:32;102195.22;;;-6.01;85.30
84957;BME280;75252;45.438;-73.814;2024-01-25T01:54:00;102190.19;;;-5.98;85.16
84957;BME280;75252;45.438;-73.814;2024-01-25T01:56:28;102190.53;;;-5.91;84.96
84957;BME280;75252;45.438;-73.814;2024-01-25T01:58:59;102186.19;;;-5.92;85.33
84957;BME280;75252;45.438;-73.814;2024-01-25T02:01:27;102182.94;;;-5.88;84.35
84957;BME280;75252;45.438;-73.814;2024-01-25T02:03:53;102181.22;;;-5.87;84.43
84957;BME280;75252;45.438;-73.814;2024-01-25T02:06:19;102171.13;;;-5.81;84.01
84957;BME280;75252;45.438;-73.814;2024-01-25T02:08:49;102167.16;;;-5.75;85.09
84957;BME280;75252;45.438;-73.814;2024-01-25T02:11:17;102157.50;;;-5.79;84.96
84957;BME280;75252;45.438;-73.814;2024-01-25T02:13:44;102143.63;;;-5.81;84.46
84957;BME280;75252;45.438;-73.814;2024-01-25T02:16:10;102144.22;;;-5.67;84.78
84957;BME280;75252;45.438;-73.814;2024-01-25T02:18:36;102144.03;;;-5.72;84.52
84957;BME280;75252;45.438;-73.814;2024-01-25T02:21:02;102132.00;;;-5.71;85.26
84957;BME280;75252;45.438;-73.814;2024-01-25T02:23:28;102132.47;;;-5.61;83.62
84957;BME280;75252;45.438;-73.814;2024-01-25T02:25:54;102130.78;;;-5.60;84.48
84957;BME280;75252;45.438;-73.814;2024-01-25T02:28:19;102124.06;;;-5.57;85.81
84957;BME280;75252;45.438;-73.814;2024-01-25T02:30:45;102113.38;;;-5.64;84.64
84957;BME280;75252;45.438;-73.814;2024-01-25T02:33:11;102112.78;;;-5.59;84.70
84957;BME280;75252;45.438;-73.814;2024-01-25T02:35:37;102105.41;;;-5.50;85.46
84957;BME280;75252;45.438;-73.814;2024-01-25T02:38:03;102109.81;;;-5.47;84.42
84957;BME280;75252;45.438;-73.814;2024-01-25T02:40:29;102096.47;;;-5.37;85.03
84957;BME280;75252;45.438;-73.814;2024-01-25T02:42:55;102086.09;;;-5.39;85.26
84957;BME280;75252;45.438;-73.814;2024-01-25T02:45:24;102084.09;;;-5.44;85.67
84957;BME280;75252;45.438;-73.814;2024-01-25T02:47:50;102083.94;;;-5.28;86.24
84957;BME280;75252;45.438;-73.814;2024-01-25T02:50:16;102086.72;;;-5.23;85.90
84957;BME280;75252;45.438;-73.814;2024-01-25T02:52:42;102088.63;;;-5.19;85.04
84957;BME280;75252;45.438;-73.814;2024-01-25T02:55:08;102076.44;;;-5.22;84.97
84957;BME280;75252;45.438;-73.814;2024-01-25T02:57:34;102064.59;;;-5.17;84.25
84957;BME280;75252;45.438;-73.814;2024-01-25T03:00:00;102065.28;;;-5.21;83.97
84957;BME280;75252;45.438;-73.814;2024-01-25T03:02:26;102060.94;;;-5.22;84.49
84957;BME280;75252;45.438;-73.814;2024-01-25T03:04:52;102049.94;;;-5.16;84.55
84957;BME280;75252;45.438;-73.814;2024-01-25T03:07:18;102051.16;;;-5.08;85.14
84957;BME280;75252;45.438;-73.814;2024-01-25T03:09:44;102047.13;;;-5.02;85.81
84957;BME280;75252;45.438;-73.814;2024-01-25T03:12:09;102056.56;;;-5.02;85.50
84957;BME280;75252;45.438;-73.814;2024-01-25T03:14:36;102056.88;;;-4.95;85.13
84957;BME280;75252;45.438;-73.814;2024-01-25T03:17:01;102058.47;;;-4.98;85.46
84957;BME280;75252;45.438;-73.814;2024-01-25T03:19:28;102064.69;;;-4.93;84.07
84957;BME280;75252;45.438;-73.814;2024-01-25T03:21:54;102057.13;;;-4.89;85.01
84957;BME280;75252;45.438;-73.814;2024-01-25T03:24:21;102043.78;;;-4.77;85.03
84957;BME280;75252;45.438;-73.814;2024-01-25T03:26:47;102053.38;;;-4.75;84.04
84957;BME280;75252;45.438;-73.814;2024-01-25T03:29:14;102047.25;;;-4.77;85.72
84957;BME280;75252;45.438;-73.814;2024-01-25T03:31:40;102052.78;;;-4.68;86.46
84957;BME280;75252;45.438;-73.814;2024-01-25T03:34:06;102045.00;;;-4.68;85.12
84957;BME280;75252;45.438;-73.814;2024-01-25T03:36:32;102047.28;;;-4.55;85.41
84957;BME280;75252;45.438;-73.814;2024-01-25T03:38:58;102043.75;;;-4.57;85.90
84957;BME280;75252;45.438;-73.814;2024-01-25T03:41:24;102052.75;;;-4.47;85.69
84957;BME280;75252;45.438;-73.814;2024-01-25T03:43:50;102042.66;;;-4.39;84.98
84957;BME280;75252;45.438;-73.814;2024-01-25T03:46:17;102046.84;;;-4.43;85.28
84957;BME280;75252;45.438;-73.814;2024-01-25T03:48:43;102046.91;;;-4.41;84.67
84957;BME280;75252;45.438;-73.814;2024-01-25T03:51:09;102040.25;;;-4.35;86.09
84957;BME280;75252;45.438;-73.814;2024-01-25T03:53:34;102019.38;;;-4.39;85.83
84957;BME280;75252;45.438;-73.814;2024-01-25T03:56:00;102008.22;;;-4.38;85.71
84957;BME280;75252;45.438;-73.814;2024-01-25T03:58:26;102020.78;;;-4.25;85.98
84957;BME280;75252;45.438;-73.814;2024-01-25T04:00:52;102001.81;;;-4.24;86.08
84957;BME280;75252;45.438;-73.814;2024-01-25T04:03:18;102004.69;;;-4.17;85.45
84957;BME280;75252;45.438;-73.814;2024-01-25T04:05:44;102002.22;;;-4.14;86.36
84957;BME280;75252;45.438;-73.814;2024-01-25T04:08:10;101993.63;;;-4.13;86.16
84957;BME280;75252;45.438;-73.814;2024-01-25T04:10:36;101979.38;;;-4.00;86.75
84957;BME280;75252;45.438;-73.814;2024-01-25T04:13:02;101967.16;;;-4.04;85.87
84957;BME280;75252;45.438;-73.814;2024-01-25T04:15:30;101962.41;;;-3.92;86.03
84957;BME280;75252;45.438;-73.814;2024-01-25T04:17:56;101966.78;;;-3.91;86.18
84957;BME280;75252;45.438;-73.814;2024-01-25T04:20:22;101958.00;;;-3.95;84.94
84957;BME280;75252;45.438;-73.814;2024-01-25T04:22:48;101965.94;;;-3.90;85.26
84957;BME280;75252;45.438;-73.814;2024-01-25T04:25:14;101959.78;;;-3.94;84.22
84957;BME280;75252;45.438;-73.814;2024-01-25T04:27:41;101944.09;;;-3.97;85.14
84957;BME280;75252;45.438;-73.814;2024-01-25T04:30:08;101935.56;;;-3.94;87.08
84957;BME280;75252;45.438;-73.814;2024-01-25T04:32:34;101932.97;;;-3.94;86.27
84957;BME280;75252;45.438;-73.814;2024-01-25T04:35:00;101929.09;;;-3.82;85.24
84957;BME280;75252;45.438;-73.814;2024-01-25T04:37:26;101928.94;;;-3.86;85.05
84957;BME280;75252;45.438;-73.814;2024-01-25T04:39:52;101923.75;;;-3.86;85.55
84957;BME280;75252;45.438;-73.814;2024-01-25T04:42:18;101928.22;;;-3.82;86.43
84957;BME280;75252;45.438;-73.814;2024-01-25T04:44:44;101916.03;;;-3.85;85.90
84957;BME280;75252;45.438;-73.814;2024-01-25T04:47:10;101911.81;;;-3.81;85.85
84957;BME280;75252;45.438;-73.814;2024-01-25T04:49:36;101909.44;;;-3.75;85.13
84957;BME280;75252;45.438;-73.814;2024-01-25T04:52:02;101906.97;;;-3.72;85.16
84957;BME280;75252;45.438;-73.814;2024-01-25T04:54:28;101898.25;;;-3.74;84.38
84957;BME280;75252;45.438;-73.814;2024-01-25T04:56:54;101891.72;;;-3.63;84.58
84957;BME280;75252;45.438;-73.814;2024-01-25T04:59:20;101890.03;;;-3.61;85.25
84957;BME280;75252;45.438;-73.814;2024-01-25T05:01:46;101889.22;;;-3.60;85.15
84957;BME280;75252;45.438;-73.814;2024-01-25T05:04:12;101883.94;;;-3.63;83.62
84957;BME280;75252;45.438;-73.814;2024-01-25T05:06:38;101891.75;;;-3.62;83.97
84957;BME280;75252;45.438;-73.814;2024-01-25T05:09:04;101895.16;;;-3.64;84.75
84957;BME280;75252;45.438;-73.814;2024-01-25T05:11:30;101899.44;;;-3.65;84.52
84957;BME280;75252;45.438;-73.814;2024-01-25T05:13:56;101897.78;;;-3.63;85.56
84957;BME280;75252;45.438;-73.814;2024-01-25T05:16:22;101880.56;;;-3.61;85.30
84957;BME280;75252;45.438;-73.814;2024-01-25T05:18:48;101885.94;;;-3.54;85.90
84957;BME280;75252;45.438;-73.814;2024-01-25T05:21:13;101888.75;;;-3.48;86.24
84957;BME280;75252;45.438;-73.814;2024-01-25T05:23:39;101867.31;;;-3.43;85.64
84957;BME280;75252;45.438;-73.814;2024-01-25T05:26:06;101850.97;;;-3.40;85.31
84957;BME280;75252;45.438;-73.814;2024-01-25T05:28:32;101862.19;;;-3.40;86.19
84957;BME280;75252;45.438;-73.814;2024-01-25T05:30:58;101863.97;;;-3.39;85.37
84957;BME280;75252;45.438;-73.814;2024-01-25T05:33:23;101865.88;;;-3.33;85.84
84957;BME280;75252;45.438;-73.814;2024-01-25T05:35:50;101866.84;;;-3.30;86.58
84957;BME280;75252;45.438;-73.814;2024-01-25T05:38:16;101869.41;;;-3.31;85.84
84957;BME280;75252;45.438;-73.814;2024-01-25T05:40:42;101850.16;;;-3.38;84.61
84957;BME280;75252;45.438;-73.814;2024-01-25T05:43:08;101837.47;;;-3.30;84.57
84957;BME280;75252;45.438;-73.814;2024-01-25T05:45:33;101857.41;;;-3.28;85.29
84957;BME280;75252;45.438;-73.814;2024-01-25T05:47:59;101846.28;;;-3.24;84.44
84957;BME280;75252;45.438;-73.814;2024-01-25T05:50:25;101862.88;;;-3.19;84.69
84957;BME280;75252;45.438;-73.814;2024-01-25T05:52:51;101866.16;;;-3.24;85.97
84957;BME280;75252;45.438;-73.814;2024-01-25T05:55:17;101858.41;;;-3.24;85.06
84957;BME280;75252;45.438;-73.814;2024-01-25T05:57:43;101860.19;;;-3.22;84.81
84957;BME280;75252;45.438;-73.814;2024-01-25T06:00:12;101847.31;;;-3.19;84.97
84957;BME280;75252;45.438;-73.814;2024-01-25T06:02:39;101840.34;;;-3.20;85.68
84957;BME280;75252;45.438;-73.814;2024-01-25T06:05:06;101830.16;;;-3.14;85.46
84957;BME280;75252;45.438;-73.814;2024-01-25T06:07:33;101835.47;;;-3.11;84.13
84957;BME280;75252;45.438;-73.814;2024-01-25T06:09:59;101833.72;;;-3.10;85.26
84957;BME280;75252;45.438;-73.814;2024-01-25T06:12:24;101842.25;;;-3.14;85.17
84957;BME280;75252;45.438;-73.814;2024-01-25T06:14:50;101846.84;;;-3.06;85.24
84957;BME280;75252;45.438;-73.814;2024-01-25T06:17:18;101829.53;;;-3.07;84.91
84957;BME280;75252;45.438;-73.814;2024-01-25T06:19:43;101839.09;;;-3.04;85.25
84957;BME280;75252;45.438;-73.814;2024-01-25T06:22:10;101833.09;;;-3.03;85.93
84957;BME280;75252;45.438;-73.814;2024-01-25T06:24:38;101833.81;;;-3.07;85.52
84957;BME280;75252;45.438;-73.814;2024-01-25T06:27:05;101838.31;;;-3.02;85.80
84957;BME280;75252;45.438;-73.814;2024-01-25T06:29:31;101847.94;;;-2.98;85.37
84957;BME280;75252;45.438;-73.814;2024-01-25T06:31:58;101850.72;;;-2.92;84.30
84957;BME280;75252;45.438;-73.814;2024-01-25T06:34:24;101844.63;;;-2.92;84.01
84957;BME280;75252;45.438;-73.814;2024-01-25T06:36:50;101841.16;;;-2.93;84.11
84957;BME280;75252;45.438;-73.814;2024-01-25T06:39:15;101834.28;;;-2.91;83.63
84957;BME280;75252;45.438;-73.814;2024-01-25T06:41:41;101839.47;;;-2.91;83.85
84957;BME280;75252;45.438;-73.814;2024-01-25T06:44:07;101837.81;;;-2.89;83.89
84957;BME280;75252;45.438;-73.814;2024-01-25T06:46:33;101831.69;;;-2.91;84.29
84957;BME280;75252;45.438;-73.814;2024-01-25T06:48:59;101839.56;;;-2.89;83.44
84957;BME280;75252;45.438;-73.814;2024-01-25T06:51:25;101850.84;;;-2.87;83.47
84957;BME280;75252;45.438;-73.814;2024-01-25T06:53:51;101853.47;;;-2.86;83.74
84957;BME280;75252;45.438;-73.814;2024-01-25T06:56:17;101858.69;;;-2.86;83.68
84957;BME280;75252;45.438;-73.814;2024-01-25T06:58:43;101844.03;;;-2.84;84.76
84957;BME280;75252;45.438;-73.814;2024-01-25T07:01:09;101844.06;;;-2.82;84.68
84957;BME280;75252;45.438;-73.814;2024-01-25T07:03:35;101844.25;;;-2.76;83.85
84957;BME280;75252;45.438;-73.814;2024-01-25T07:06:01;101822.56;;;-2.78;83.46
84957;BME280;75252;45.438;-73.814;2024-01-25T07:08:26;101826.97;;;-2.76;84.16
84957;BME280;75252;45.438;-73.814;2024-01-25T07:10:52;101820.94;;;-2.73;83.70
84957;BME280;75252;45.438;-73.814;2024-01-25T07:13:18;101808.88;;;-2.73;83.87
84957;BME280;75252;45.438;-73.814;2024-01-25T07:15:44;101816.75;;;-2.70;84.98
84957;BME280;75252;45.438;-73.814;2024-01-25T07:18:10;101816.84;;;-2.65;84.43
84957;BME280;75252;45.438;-73.814;2024-01-25T07:20:36;101810.00;;;-2.63;84.35
84957;BME280;75252;45.438;-73.814;2024-01-25T07:23:02;101812.66;;;-2.61;84.41
84957;BME280;75252;45.438;-73.814;2024-01-25T07:25:28;101817.75;;;-2.64;84.75
84957;BME280;75252;45.438;-73.814;2024-01-25T07:27:54;101824.78;;;-2.60;84.56
84957;BME280;75252;45.438;-73.814;2024-01-25T07:30:20;101810.13;;;-2.58;84.35
84957;BME280;75252;45.438;-73.814;2024-01-25T07:32:46;101798.06;;;-2.56;83.61
84957;BME280;75252;45.438;-73.814;2024-01-25T07:35:12;101791.88;;;-2.61;83.89
84957;BME280;75252;45.438;-73.814;2024-01-25T07:37:39;101796.91;;;-2.67;83.84
84957;BME280;75252;45.438;-73.814;2024-01-25T07:40:07;101809.88;;;-2.67;83.98
84957;BME280;75252;45.438;-73.814;2024-01-25T07:42:33;101812.50;;;-2.66;84.10
84957;BME280;75252;45.438;-73.814;2024-01-25T07:44:59;101809.22;;;-2.59;83.80
84957;BME280;75252;45.438;-73.814;2024-01-25T07:47:25;101819.44;;;-2.65;84.00
84957;BME280;75252;45.438;-73.814;2024-01-25T07:49:51;101837.75;;;-2.60;84.63
84957;BME280;75252;45.438;-73.814;2024-01-25T07:52:17;101830.09;;;-2.56;83.91
84957;BME280;75252;45.438;-73.814;2024-01-25T07:54:43;101843.03;;;-2.57;84.11
84957;BME280;75252;45.438;-73.814;2024-01-25T07:57:10;101844.63;;;-2.62;84.38
84957;BME280;75252;45.438;-73.814;2024-01-25T07:59:36;101827.22;;;-2.65;83.90
84957;BME280;75252;45.438;-73.814;2024-01-25T08:02:02;101837.69;;;-2.63;84.20
84957;BME280;75252;45.438;-73.814;2024-01-25T08:04:28;101828.22;;;-2.61;85.07
84957;BME280;75252;45.438;-73.814;2024-01-25T08:06:56;101819.69;;;-2.57;83.70
84957;BME280;75252;45.438;-73.814;2024-01-25T08:09:22;101806.63;;;-2.59;84.06
84957;BME280;75252;45.438;-73.814;2024-01-25T08:11:48;101797.13;;;-2.58;84.16
84957;BME280;75252;45.438;-73.814;2024-01-25T08:14:14;101802.28;;;-2.61;83.47
84957;BME280;75252;45.438;-73.814;2024-01-25T08:16:41;101800.78;;;-2.52;83.60
84957;BME280;75252;45.438;-73.814;2024-01-25T08:19:07;101794.72;;;-2.52;84.38
84957;BME280;75252;45.438;-73.814;2024-01-25T08:21:33;101802.47;;;-2.54;83.48
84957;BME280;75252;45.438;-73.814;2024-01-25T08:24:01;101802.50;;;-2.52;83.66
84957;BME280;75252;45.438;-73.814;2024-01-25T08:26:27;101788.56;;;-2.56;83.87
84957;BME280;75252;45.438;-73.814;2024-01-25T08:28:53;101806.75;;;-2.56;83.83
84957;BME280;75252;45.438;-73.814;2024-01-25T08:31:19;101807.66;;;-2.54;83.35
84957;BME280;75252;45.438;-73.814;2024-01-25T08:33:45;101813.63;;;-2.56;83.79
84957;BME280;75252;45.438;-73.814;2024-01-25T08:36:21;101813.63;;;-2.56;84.65
84957;BME280;75252;45.438;-73.814;2024-01-25T08:38:48;101810.44;;;-2.46;84.45
84957;BME280;75252;45.438;-73.814;2024-01-25T08:41:14;101811.19;;;-2.52;84.03
84957;BME280;75252;45.438;-73.814;2024-01-25T08:43:41;101819.69;;;-2.57;84.65
84957;BME280;75252;45.438;-73.814;2024-01-25T08:46:07;101816.38;;;-2.52;84.16
84957;BME280;75252;45.438;-73.814;2024-01-25T08:48:34;101815.38;;;-2.55;83.88
84957;BME280;75252;45.438;-73.814;2024-01-25T08:51:00;101817.97;;;-2.55;83.87
84957;BME280;75252;45.438;-73.814;2024-01-25T08:53:25;101803.31;;;-2.53;84.00
84957;BME280;75252;45.438;-73.814;2024-01-25T08:55:54;101787.69;;;-2.56;84.24
84957;BME280;75252;45.438;-73.814;2024-01-25T08:58:21;101775.50;;;-2.59;83.42
84957;BME280;75252;45.438;-73.814;2024-01-25T09:00:47;101782.53;;;-2.55;84.24
84957;BME280;75252;45.438;-73.814;2024-01-25T09:03:14;101785.13;;;-2.55;84.62
84957;BME280;75252;45.438;-73.814;2024-01-25T09:05:40;101790.34;;;-2.53;85.05
84957;BME280;75252;45.438;-73.814;2024-01-25T09:08:14;101801.75;;;-2.48;84.70
84957;BME280;75252;45.438;-73.814;2024-01-25T09:10:41;101799.03;;;-2.51;84.78
84957;BME280;75252;45.438;-73.814;2024-01-25T09:13:08;101795.66;;;-2.49;84.34
84957;BME280;75252;45.438;-73.814;2024-01-25T09:15:34;101786.13;;;-2.50;83.90
84957;BME280;75252;45.438;-73.814;2024-01-25T09:18:00;101769.06;;;-2.40;83.82
84957;BME280;75252;45.438;-73.814;2024-01-25T09:20:25;101784.53;;;-2.45;84.18
84957;BME280;75252;45.438;-73.814;2024-01-25T09:22:52;101786.19;;;-2.47;84.02
84957;BME280;75252;45.438;-73.814;2024-01-25T09:25:20;101777.50;;;-2.49;84.07
84957;BME280;75252;45.438;-73.814;2024-01-25T09:27:47;101784.47;;;-2.48;84.56
84957;BME280;75252;45.438;-73.814;2024-01-25T09:30:13;101810.59;;;-2.42;84.03
84957;BME280;75252;45.438;-73.814;2024-01-25T09:32:39;101822.69;;;-2.42;84.33
84957;BME280;75252;45.438;-73.814;2024-01-25T09:35:05;101828.75;;;-2.42;83.82
84957;BME280;75252;45.438;-73.814;2024-01-25T09:37:31;101825.41;;;-2.38;84.13
84957;BME280;75252;45.438;-73.814;2024-01-25T09:39:58;101825.28;;;-2.42;84.06
84957;BME280;75252;45.438;-73.814;2024-01-25T09:42:24;101838.28;;;-2.41;83.90
84957;BME280;75252;45.438;-73.814;2024-01-25T09:44:52;101844.53;;;-2.34;83.86
84957;BME280;75252;45.438;-73.814;2024-01-25T09:47:20;101853.91;;;-2.39;84.00
84957;BME280;75252;45.438;-73.814;2024-01-25T09:49:46;101846.22;;;-2.36;83.67
84957;BME280;75252;45.438;-73.814;2024-01-25T09:52:13;101865.22;;;-2.37;84.05
84957;BME280;75252;45.438;-73.814;2024-01-25T09:54:40;101867.81;;;-2.37;83.84
84957;BME280;75252;45.438;-73.814;2024-01-25T09:57:13;101851.88;;;-2.49;84.02
84957;BME280;75252;45.438;-73.814;2024-01-25T09:59:40;101863.34;;;-2.43;83.26
84957;BME280;75252;45.438;-73.814;2024-01-25T10:02:07;101854.72;;;-2.42;84.04
84957;BME280;75252;45.438;-73.814;2024-01-25T10:04:35;101857.22;;;-2.45;84.48
84957;BME280;75252;45.438;-73.814;2024-01-25T10:07:01;101849.59;;;-2.39;83.23
84957;BME280;75252;45.438;-73.814;2024-01-25T10:09:26;101842.56;;;-2.43;83.39
84957;BME280;75252;45.438;-73.814;2024-01-25T10:11:52;101862.44;;;-2.43;83.61
84957;BME280;75252;45.438;-73.814;2024-01-25T10:14:19;101871.88;;;-2.47;83.61
84957;BME280;75252;45.438;-73.814;2024-01-25T10:16:45;101865.16;;;-2.40;83.75
84957;BME280;75252;45.438;-73.814;2024-01-25T10:19:12;101868.53;;;-2.43;83.78
84957;BME280;75252;45.438;-73.814;2024-01-25T10:21:40;101860.88;;;-2.38;83.28
84957;BME280;75252;45.438;-73.814;2024-01-25T10:24:06;101870.38;;;-2.39;83.84
84957;BME280;75252;45.438;-73.814;2024-01-25T10:26:34;101878.28;;;-2.34;83.52
84957;BME280;75252;45.438;-73.814;2024-01-25T10:29:00;101893.88;;;-2.34;83.92
84957;BME280;75252;45.438;-73.814;2024-01-25T10:31:27;101893.56;;;-2.45;84.76
84957;BME280;75252;45.438;-73.814;2024-01-25T10:33:54;101881.44;;;-2.46;84.58
84957;BME280;75252;45.438;-73.814;2024-01-25T10:36:21;101876.28;;;-2.44;84.20
84957;BME280;75252;45.438;-73.814;2024-01-25T10:38:53;101868.66;;;-2.38;83.98
84957;BME280;75252;45.438;-73.814;2024-01-25T10:41:19;101877.22;;;-2.42;83.27
84957;BME280;75252;45.438;-73.814;2024-01-25T10:43:45;101888.47;;;-2.42;83.54
84957;BME280;75252;45.438;-73.814;2024-01-25T10:46:11;101886.03;;;-2.36;83.65
84957;BME280;75252;45.438;-73.814;2024-01-25T10:48:38;101880.72;;;-2.40;83.46
84957;BME280;75252;45.438;-73.814;2024-01-25T10:51:04;101893.75;;;-2.39;83.98
84957;BME280;75252;45.438;-73.814;2024-01-25T10:53:34;101897.25;;;-2.37;83.88
84957;BME280;75252;45.438;-73.814;2024-01-25T10:56:02;101896.41;;;-2.36;83.95
84957;BME280;75252;45.438;-73.814;2024-01-25T10:58:32;101887.97;;;-2.29;83.59
84957;BME280;75252;45.438;-73.814;2024-01-25T11:01:00;101900.06;;;-2.29;83.31
84957;BME280;75252;45.438;-73.814;2024-01-25T11:03:26;101903.56;;;-2.27;83.67
84957;BME280;75252;45.438;-73.814;2024-01-25T11:05:55;101909.50;;;-2.33;84.00
84957;BME280;75252;45.438;-73.814;2024-01-25T11:08:21;101911.94;;;-2.37;83.69
84957;BME280;75252;45.438;-73.814;2024-01-25T11:10:52;101921.53;;;-2.36;83.66
84957;BME280;75252;45.438;-73.814;2024-01-25T11:13:26;101917.25;;;-2.34;83.37
84957;BME280;75252;45.438;-73.814;2024-01-25T11:15:52;101930.31;;;-2.31;83.90
84957;BME280;75252;45.438;-73.814;2024-01-25T11:18:18;101922.50;;;-2.31;83.36
84957;BME280;75252;45.438;-73.814;2024-01-25T11:20:47;101918.22;;;-2.31;83.48
84957;BME280;75252;45.438;-73.814;2024-01-25T11:23:16;101933.75;;;-2.32;83.52
84957;BME280;75252;45.438;-73.814;2024-01-25T11:25:45;101947.72;;;-2.27;83.71
84957;BME280;75252;45.438;-73.814;2024-01-25T11:28:14;101960.72;;;-2.27;83.25
84957;BME280;75252;45.438;-73.814;2024-01-25T11:30:44;101951.94;;;-2.32;83.32
84957;BME280;75252;45.438;-73.814;2024-01-25T11:33:11;101948.44;;;-2.33;83.82
84957;BME280;75252;45.438;-73.814;2024-01-25T11:35:37;101973.50;;;-2.35;83.66
84957;BME280;75252;45.438;-73.814;2024-01-25T11:38:03;101981.97;;;-2.42;84.57
84957;BME280;75252;45.438;-73.814;2024-01-25T11:40:29;101975.19;;;-2.35;84.62
84957;BME280;75252;45.438;-73.814;2024-01-25T11:42:56;101980.38;;;-2.37;84.53
84957;BME280;75252;45.438;-73.814;2024-01-25T11:45:22;101987.31;;;-2.36;84.68
84957;BME280;75252;45.438;-73.814;2024-01-25T11:47:49;101988.28;;;-2.32;84.54
84957;BME280;75252;45.438;-73.814;2024-01-25T11:50:16;101975.38;;;-2.29;84.83
84957;BME280;75252;45.438;-73.814;2024-01-25T11:52:44;101985.13;;;-2.22;84.62
84957;BME280;75252;45.438;-73.814;2024-01-25T11:55:10;101996.25;;;-2.26;84.72
84957;BME280;75252;45.438;-73.814;2024-01-25T11:57:40;102009.09;;;-2.31;84.72
84957;BME280;75252;45.438;-73.814;2024-01-25T12:00:09;102018.75;;;-2.27;84.99
84957;BME280;75252;45.438;-73.814;2024-01-25T12:02:36;102021.38;;;-2.25;84.57
84957;BME280;75252;45.438;-73.814;2024-01-25T12:05:03;102026.59;;;-2.25;84.61
84957;BME280;75252;45.438;-73.814;2024-01-25T12:07:32;102025.69;;;-2.26;84.92
84957;BME280;75252;45.438;-73.814;2024-01-25T12:10:07;102027.38;;;-2.28;84.44
84957;BME280;75252;45.438;-73.814;2024-01-25T12:12:35;102040.53;;;-2.22;84.54
84957;BME280;75252;45.438;-73.814;2024-01-25T12:15:04;102034.66;;;-2.16;84.74
84957;BME280;75252;45.438;-73.814;2024-01-25T12:17:32;102031.28;;;-2.12;84.40
84957;BME280;75252;45.438;-73.814;2024-01-25T12:19:59;102032.09;;;-2.15;84.63
84957;BME280;75252;45.438;-73.814;2024-01-25T12:22:29;102038.97;;;-2.17;84.55
84957;BME280;75252;45.438;-73.814;2024-01-25T12:24:56;102041.66;;;-2.12;84.43
84957;BME280;75252;45.438;-73.814;2024-01-25T12:27:23;102057.41;;;-2.08;84.66